createdAt,value
2022-09-29T00:02:20.205Z,4.87
2022-09-29T00:04:48.430Z,5.13
2022-09-29T00:07:16.630Z,5.23
2022-09-29T00:09:46.280Z,5.90
2022-09-29T00:12:22.545Z,5.37
2022-09-29T00:14:52.329Z,5.27
2022-09-29T00:17:24.472Z,5.10
2022-09-29T00:19:52.685Z,5.80
2022-09-29T00:22:21.001Z,5.63
2022-09-29T00:24:56.413Z,5.37
2022-09-29T00:27:24.677Z,5.50
2022-09-29T00:29:52.886Z,6.07
2022-09-29T00:32:21.008Z,6.10
2022-09-29T00:34:51.104Z,5.40
2022-09-29T00:37:20.638Z,5.90
2022-09-29T00:39:51.102Z,6.23
2022-09-29T00:42:19.907Z,5.90
2022-09-29T00:45:03.375Z,6.50
2022-09-29T00:47:37.956Z,6.00
2022-09-29T00:50:08.089Z,6.10
2022-09-29T00:52:41.572Z,5.77
2022-09-29T00:55:12.446Z,6.30
2022-09-29T00:57:44.747Z,6.30
2022-09-29T01:00:15.734Z,5.77
2022-09-29T01:02:45.581Z,6.87
2022-09-29T01:05:15.437Z,5.87
2022-09-29T01:07:44.518Z,6.67
2022-09-29T01:10:14.438Z,6.83
2022-09-29T01:12:42.965Z,6.00
2022-09-29T01:15:11.509Z,6.87
2022-09-29T01:17:39.766Z,7.00
2022-09-29T01:20:13.430Z,6.67
2022-09-29T01:23:21.910Z,7.60
2022-09-29T01:26:19.750Z,7.13
2022-09-29T01:29:26.276Z,6.93
2022-09-29T01:31:58.865Z,7.03
2022-09-29T01:34:33.631Z,7.47
2022-09-29T01:37:15.122Z,8.27
2022-09-29T01:39:44.664Z,7.57
2022-09-29T01:42:19.485Z,7.73
2022-09-29T01:44:51.397Z,7.07
2022-09-29T01:47:22.287Z,7.20
2022-09-29T01:49:53.201Z,7.43
2022-09-29T01:52:22.800Z,7.20
2022-09-29T01:54:52.708Z,7.17
2022-09-29T01:57:24.157Z,7.43
2022-09-29T01:59:53.907Z,7.13
2022-09-29T02:02:26.038Z,7.67
2022-09-29T02:04:56.371Z,7.77
2022-09-29T02:07:27.285Z,8.57
2022-09-29T02:09:58.951Z,8.20
2022-09-29T02:12:31.687Z,8.37
2022-09-29T02:15:10.807Z,8.10
2022-09-29T02:17:41.225Z,8.30
2022-09-29T02:20:10.655Z,7.90
2022-09-29T02:22:39.003Z,8.07
2022-09-29T02:25:09.476Z,8.27
2022-09-29T02:27:37.736Z,8.40
2022-09-29T02:30:07.636Z,9.00
2022-09-29T02:32:36.417Z,8.30
2022-09-29T02:35:07.593Z,8.13
2022-09-29T02:37:43.632Z,8.30
2022-09-29T02:40:18.501Z,8.13
2022-09-29T02:42:53.451Z,7.97
2022-09-29T02:45:39.779Z,8.30
2022-09-29T02:48:16.869Z,37.07
2022-09-29T02:50:51.751Z,26.93
2022-09-29T02:53:26.134Z,12.57
2022-09-29T02:55:58.943Z,14.07
2022-09-29T02:58:30.292Z,9.73
2022-09-29T03:00:58.775Z,14.00
2022-09-29T03:03:27.111Z,12.47
2022-09-29T03:06:00.366Z,10.67
2022-09-29T03:08:28.570Z,66.13
2022-09-29T03:10:56.909Z,8.67
2022-09-29T03:13:25.052Z,11.03
2022-09-29T03:15:54.987Z,9.00
2022-09-29T03:18:24.627Z,11.77
2022-09-29T03:20:57.529Z,17.07
2022-09-29T03:23:27.039Z,8.60
2022-09-29T03:25:58.827Z,12.20
2022-09-29T03:28:27.062Z,21.93
2022-09-29T03:30:58.370Z,29.80
2022-09-29T03:33:26.755Z,56.40
2022-09-29T03:35:54.965Z,60.57
2022-09-29T03:38:23.095Z,18.97
2022-09-29T03:40:52.837Z,65.70
2022-09-29T03:43:21.416Z,19.07
2022-09-29T03:45:50.350Z,35.87
2022-09-29T03:48:21.773Z,57.67
2022-09-29T03:50:54.717Z,47.43
2022-09-29T03:53:25.438Z,10.83
2022-09-29T03:55:58.502Z,92.53
2022-09-29T03:58:33.142Z,23.90
2022-09-29T04:01:01.760Z,13.77
2022-09-29T04:03:34.802Z,43.80
2022-09-29T04:06:06.133Z,34.40
2022-09-29T04:08:34.431Z,9.47
2022-09-29T04:11:04.310Z,6.53
2022-09-29T04:13:32.452Z,9.10
2022-09-29T04:16:01.240Z,6.67
2022-09-29T04:18:29.795Z,7.83
2022-09-29T04:21:00.806Z,7.10
2022-09-29T04:23:30.478Z,45.30
2022-09-29T04:26:11.046Z,25.93
2022-09-29T04:28:39.258Z,7.80
2022-09-29T04:31:11.705Z,10.40
2022-09-29T04:33:41.253Z,11.43
2022-09-29T04:36:09.582Z,8.57
2022-09-29T04:38:38.030Z,11.53
2022-09-29T04:41:08.207Z,18.23
2022-09-29T04:43:36.334Z,18.33
2022-09-29T04:46:06.009Z,12.97
2022-09-29T04:48:35.940Z,8.10
2022-09-29T04:51:12.869Z,10.77
2022-09-29T04:53:44.126Z,9.83
2022-09-29T04:56:15.595Z,14.37
2022-09-29T04:58:44.358Z,10.23
2022-09-29T05:01:15.371Z,11.43
2022-09-29T05:03:46.203Z,12.97
2022-09-29T05:06:14.344Z,11.53
2022-09-29T05:08:48.383Z,13.53
2022-09-29T05:11:24.418Z,30.17
2022-09-29T05:13:53.011Z,74.77
2022-09-29T05:16:30.875Z,31.40
2022-09-29T05:18:59.336Z,72.57
2022-09-29T05:21:34.245Z,34.73
2022-09-29T05:24:05.710Z,28.57
2022-09-29T05:26:35.536Z,17.27
2022-09-29T05:29:06.223Z,43.83
2022-09-29T05:31:37.527Z,62.53
2022-09-29T05:34:09.042Z,9.67
2022-09-29T05:36:39.316Z,33.63
2022-09-29T05:39:12.742Z,11.23
2022-09-29T05:41:42.325Z,44.40
2022-09-29T05:44:18.192Z,17.37
2022-09-29T05:46:46.763Z,10.80
2022-09-29T05:49:15.013Z,14.00
2022-09-29T05:51:51.819Z,10.30
2022-09-29T05:54:27.798Z,17.77
2022-09-29T05:57:01.567Z,10.40
2022-09-29T05:59:35.662Z,10.50
2022-09-29T06:02:06.026Z,32.80
2022-09-29T06:04:40.541Z,13.03
2022-09-29T06:07:10.616Z,19.00
2022-09-29T06:09:38.792Z,47.90
2022-09-29T06:12:16.835Z,8.93
2022-09-29T06:14:48.141Z,16.63
2022-09-29T06:17:16.404Z,36.33
2022-09-29T06:19:45.032Z,57.03
2022-09-29T06:22:18.263Z,23.67
2022-09-29T06:24:46.607Z,13.67
2022-09-29T06:27:17.506Z,11.20
2022-09-29T06:29:45.806Z,10.83
2022-09-29T06:32:21.536Z,11.70
2022-09-29T06:35:06.788Z,11.53
2022-09-29T06:37:39.587Z,11.57
2022-09-29T06:40:11.174Z,12.03
2022-09-29T06:42:43.914Z,11.17
2022-09-29T06:45:22.067Z,12.27
2022-09-29T06:47:50.812Z,11.80
2022-09-29T06:50:21.965Z,12.97
2022-09-29T06:53:03.729Z,12.80
2022-09-29T06:55:35.122Z,13.73
2022-09-29T06:58:05.087Z,12.83
2022-09-29T07:00:43.987Z,13.03
2022-09-29T07:03:17.237Z,15.50
2022-09-29T07:05:52.756Z,13.90
2022-09-29T07:08:36.225Z,14.43
2022-09-29T07:11:04.855Z,16.97
2022-09-29T07:13:34.554Z,15.10
2022-09-29T07:16:08.123Z,15.50
2022-09-29T07:18:40.126Z,16.10
2022-09-29T07:21:13.704Z,15.50
2022-09-29T07:23:42.590Z,16.43
2022-09-29T07:26:10.871Z,15.70
2022-09-29T07:28:43.530Z,16.53
2022-09-29T07:31:16.449Z,14.27
2022-09-29T07:33:46.285Z,15.93
2022-09-29T07:36:14.567Z,16.57
2022-09-29T07:38:46.994Z,19.57
2022-09-29T07:41:15.496Z,16.97
2022-09-29T07:43:45.081Z,18.03
2022-09-29T07:46:16.662Z,18.00
2022-09-29T07:48:45.077Z,17.73
2022-09-29T07:51:14.315Z,17.57
2022-09-29T07:53:42.669Z,16.27
2022-09-29T07:56:16.769Z,17.40
2022-09-29T07:58:49.682Z,17.97
2022-09-29T08:01:24.045Z,18.97
2022-09-29T08:03:54.135Z,18.57
2022-09-29T08:06:22.439Z,18.17
2022-09-29T08:09:03.185Z,19.10
2022-09-29T08:11:38.210Z,18.27
2022-09-29T08:14:08.045Z,20.07
2022-09-29T08:16:36.382Z,18.47
2022-09-29T08:19:05.324Z,19.73
2022-09-29T08:21:38.295Z,19.50
2022-09-29T08:24:08.946Z,19.47
2022-09-29T08:26:44.285Z,19.33
2022-09-29T08:29:18.248Z,19.43
2022-09-29T08:31:49.536Z,19.63
2022-09-29T08:34:18.059Z,19.77
2022-09-29T08:36:46.687Z,19.67
2022-09-29T08:39:15.718Z,18.30
2022-09-29T08:41:55.657Z,19.00
2022-09-29T08:44:38.871Z,17.57
2022-09-29T08:47:17.081Z,16.03
2022-09-29T08:49:53.384Z,14.67
2022-09-29T08:52:24.125Z,16.07
2022-09-29T08:54:54.707Z,13.20
2022-09-29T08:57:22.910Z,12.50
2022-09-29T08:59:58.565Z,9.73
2022-09-29T09:02:55.830Z,9.40
2022-09-29T09:05:55.290Z,10.03
2022-09-29T09:08:31.823Z,8.63
2022-09-29T09:11:07.944Z,9.47
2022-09-29T09:13:48.860Z,8.17
2022-09-29T09:16:22.805Z,9.00
2022-09-29T09:19:06.355Z,9.23
2022-09-29T09:21:40.537Z,8.13
2022-09-29T09:24:17.796Z,7.90
2022-09-29T09:26:51.048Z,6.73
2022-09-29T09:29:25.471Z,6.80
2022-09-29T09:32:00.492Z,6.93
2022-09-29T09:34:43.630Z,7.03
2022-09-29T09:37:14.940Z,6.43
2022-09-29T09:39:49.985Z,4.90
2022-09-29T09:42:20.014Z,5.37
2022-09-29T09:44:49.426Z,5.80
2022-09-29T09:47:27.238Z,5.57
2022-09-29T09:49:57.672Z,5.87
2022-09-29T09:52:28.551Z,5.90
2022-09-29T09:55:02.100Z,5.30
2022-09-29T09:57:59.202Z,5.80
2022-09-29T10:00:29.383Z,5.57
2022-09-29T10:02:59.038Z,4.90
2022-09-29T10:05:30.802Z,5.00
2022-09-29T10:08:04.079Z,5.20
2022-09-29T10:10:33.308Z,4.63
2022-09-29T10:13:04.492Z,4.90
2022-09-29T10:15:41.707Z,4.83
2022-09-29T10:18:19.173Z,4.30
2022-09-29T10:20:50.398Z,4.07
2022-09-29T10:23:32.795Z,3.80
2022-09-29T10:26:10.528Z,4.50
2022-09-29T10:28:48.407Z,3.93
2022-09-29T10:31:24.030Z,3.90
2022-09-29T10:33:56.991Z,3.90
2022-09-29T10:36:26.176Z,3.30
2022-09-29T10:39:00.903Z,3.40
2022-09-29T10:41:40.615Z,3.90
2022-09-29T10:44:22.106Z,4.33
2022-09-29T10:46:55.327Z,3.53
2022-09-29T10:49:32.913Z,4.57
2022-09-29T10:52:06.207Z,3.60
2022-09-29T10:54:35.812Z,3.70
2022-09-29T10:57:15.516Z,3.70
2022-09-29T10:59:51.535Z,3.50
2022-09-29T11:02:26.562Z,3.90
2022-09-29T11:05:00.015Z,3.70
2022-09-29T11:07:29.218Z,3.33
2022-09-29T11:10:12.280Z,3.33
2022-09-29T11:12:50.534Z,2.90
2022-09-29T11:15:42.057Z,2.97
2022-09-29T11:18:21.550Z,2.90
2022-09-29T11:20:54.251Z,2.77
2022-09-29T11:23:27.310Z,2.70
2022-09-29T11:26:18.995Z,2.63
2022-09-29T11:29:08.382Z,2.90
2022-09-29T11:31:45.110Z,1.83
2022-09-29T11:34:47.898Z,2.40
2022-09-29T11:37:36.184Z,2.27
2022-09-29T11:40:12.975Z,2.37
2022-09-29T11:42:52.951Z,2.20
2022-09-29T11:45:29.513Z,2.23
2022-09-29T11:48:27.205Z,2.27
2022-09-29T11:51:01.325Z,2.33
2022-09-29T11:53:40.634Z,2.53
2022-09-29T11:56:31.955Z,2.17
2022-09-29T11:59:24.999Z,1.80
2022-09-29T12:02:16.693Z,1.60
2022-09-29T12:04:49.274Z,1.60
2022-09-29T12:07:31.622Z,1.47
2022-09-29T12:10:29.413Z,2.00
2022-09-29T12:13:10.269Z,1.90
2022-09-29T12:15:47.677Z,2.30
2022-09-29T12:18:20.767Z,2.27
2022-09-29T12:20:53.916Z,1.83
2022-09-29T12:23:30.169Z,2.20
2022-09-29T12:26:03.173Z,1.97
2022-09-29T12:28:39.959Z,1.93
2022-09-29T12:31:24.743Z,1.53
2022-09-29T12:34:01.691Z,1.63
2022-09-29T12:36:51.930Z,1.40
2022-09-29T12:39:38.563Z,1.70
2022-09-29T12:42:31.047Z,1.80
2022-09-29T12:45:02.288Z,1.43
2022-09-29T12:47:38.454Z,1.37
2022-09-29T12:50:14.696Z,1.50
2022-09-29T12:52:53.464Z,1.20
2022-09-29T12:55:29.765Z,1.30
2022-09-29T12:58:00.892Z,1.10
2022-09-29T13:00:31.799Z,1.20
2022-09-29T13:03:23.081Z,1.20
2022-09-29T13:06:35.910Z,1.13
2022-09-29T13:09:31.847Z,1.33
2022-09-29T13:12:13.684Z,1.10
2022-09-29T13:15:04.091Z,1.00
2022-09-29T13:17:57.764Z,0.80
2022-09-29T13:20:52.521Z,1.00
2022-09-29T13:23:51.272Z,1.17
2022-09-29T13:26:35.853Z,1.20
2022-09-29T13:29:05.542Z,1.40
2022-09-29T13:31:39.063Z,1.27
2022-09-29T13:34:22.292Z,1.30
2022-09-29T13:36:56.279Z,1.03
2022-09-29T13:39:33.400Z,1.40
2022-09-29T13:42:30.226Z,1.23
2022-09-29T13:45:41.661Z,1.30
2022-09-29T13:48:40.769Z,1.40
2022-09-29T13:51:46.689Z,1.00
2022-09-29T13:54:35.713Z,1.20
2022-09-29T13:57:09.229Z,1.13
2022-09-29T13:59:39.739Z,1.63
2022-09-29T14:02:24.079Z,1.10
2022-09-29T14:04:57.125Z,1.20
2022-09-29T14:07:48.190Z,1.10
2022-09-29T14:10:24.543Z,1.40
2022-09-29T14:12:56.856Z,1.07
2022-09-29T14:15:29.306Z,1.10
2022-09-29T14:18:03.206Z,1.27
2022-09-29T14:20:34.499Z,1.57
2022-09-29T14:23:07.093Z,1.33
2022-09-29T14:25:57.425Z,1.10
2022-09-29T14:31:38.496Z,1.20
2022-09-29T14:34:08.781Z,1.00
2022-09-29T14:36:45.647Z,1.27
2022-09-29T14:39:32.978Z,1.23
2022-09-29T14:42:01.437Z,0.90
2022-09-29T14:44:50.779Z,1.00
2022-09-29T14:47:54.266Z,1.10
2022-09-29T14:50:55.596Z,1.03
2022-09-29T14:53:57.149Z,1.70
2022-09-29T14:56:44.282Z,1.00
2022-09-29T14:59:20.970Z,1.10
2022-09-29T15:02:19.615Z,0.90
2022-09-29T15:04:48.297Z,1.00
2022-09-29T15:07:23.768Z,1.00
2022-09-29T15:09:58.170Z,0.90
2022-09-29T15:12:29.529Z,1.30
2022-09-29T15:15:02.011Z,1.37
2022-09-29T15:17:44.965Z,1.20
2022-09-29T15:20:23.571Z,1.20
2022-09-29T15:23:35.192Z,1.07
2022-09-29T15:26:15.410Z,0.83
2022-09-29T15:28:45.382Z,1.10
2022-09-29T15:31:22.766Z,1.10
2022-09-29T15:34:01.285Z,0.50
2022-09-29T15:36:36.644Z,0.40
2022-09-29T15:39:27.885Z,0.50
2022-09-29T15:42:00.982Z,0.50
2022-09-29T15:44:34.665Z,0.80
2022-09-29T15:47:06.996Z,0.73
2022-09-29T15:49:41.752Z,0.73
2022-09-29T15:52:13.521Z,0.87
2022-09-29T15:54:45.214Z,0.63
2022-09-29T15:57:50.396Z,0.77
2022-09-29T16:00:45.906Z,0.60
2022-09-29T16:03:29.968Z,0.77
2022-09-29T16:06:05.137Z,0.90
2022-09-29T16:08:36.996Z,0.93
2022-09-29T16:11:10.749Z,1.30
2022-09-29T16:13:43.551Z,2.87
2022-09-29T16:16:27.301Z,3.03
2022-09-29T16:22:53.017Z,1.00
2022-09-29T16:25:28.919Z,0.80
2022-09-29T16:27:57.898Z,0.70
2022-09-29T16:30:31.732Z,3.03
2022-09-29T16:33:15.366Z,3.20
2022-09-29T16:35:51.059Z,3.03
2022-09-29T16:38:37.622Z,3.10
2022-09-29T16:41:20.002Z,2.13
2022-09-29T16:43:56.846Z,2.40
2022-09-29T16:49:17.909Z,2.13
2022-09-29T16:51:50.525Z,1.87
2022-09-29T16:54:24.299Z,1.53
2022-09-29T16:57:13.156Z,1.57
2022-09-29T16:59:41.405Z,1.37
2022-09-29T17:02:22.014Z,1.47
2022-09-29T17:04:50.740Z,1.87
2022-09-29T17:07:21.431Z,1.87
2022-09-29T17:09:57.704Z,2.00
2022-09-29T17:14:45.078Z,1.63
2022-09-29T17:16:27.503Z,1.80
2022-09-29T17:19:03.294Z,2.00
2022-09-29T17:21:36.421Z,1.60
2022-09-29T17:24:13.234Z,1.70
2022-09-29T17:27:03.347Z,1.80
2022-09-29T17:29:32.478Z,2.13
2022-09-29T17:32:14.444Z,2.30
2022-09-29T17:35:01.489Z,2.00
2022-09-29T17:37:36.655Z,2.53
2022-09-29T17:40:17.075Z,2.70
2022-09-29T17:42:47.385Z,2.80
2022-09-29T17:45:20.672Z,3.13
2022-09-29T17:47:50.736Z,3.70
2022-09-29T17:50:39.078Z,3.27
2022-09-29T17:53:18.987Z,3.00
2022-09-29T17:55:51.705Z,3.53
2022-09-29T17:58:23.971Z,3.60
2022-09-29T18:00:54.009Z,3.53
2022-09-29T18:03:22.556Z,4.03
2022-09-29T18:05:57.874Z,4.30
2022-09-29T18:08:29.812Z,5.43
2022-09-29T18:10:59.365Z,6.73
2022-09-29T18:13:32.131Z,5.73
2022-09-29T18:16:12.016Z,5.97
2022-09-29T18:18:44.361Z,7.10
2022-09-29T18:21:24.347Z,8.10
2022-09-29T18:23:53.962Z,7.70
2022-09-29T18:26:31.533Z,9.50
2022-09-29T18:29:01.814Z,8.17
2022-09-29T18:31:32.539Z,6.70
2022-09-29T18:34:04.404Z,7.33
2022-09-29T18:36:35.716Z,7.10
2022-09-29T18:39:04.023Z,7.50
2022-09-29T18:41:32.300Z,8.00
2022-09-29T18:44:03.784Z,8.20
2022-09-29T18:46:34.252Z,7.67
2022-09-29T18:49:05.683Z,7.80
2022-09-29T18:51:39.436Z,7.60
2022-09-29T18:54:09.169Z,5.70
2022-09-29T18:56:37.568Z,5.27
2022-09-29T18:59:13.147Z,5.27
2022-09-29T19:01:41.965Z,4.90
2022-09-29T19:04:11.005Z,4.73
2022-09-29T19:07:28.337Z,6.27
2022-09-29T19:09:58.547Z,7.87
2022-09-29T19:12:29.818Z,8.70
2022-09-29T19:15:02.714Z,8.90
2022-09-29T19:17:32.761Z,7.30
2022-09-29T19:20:04.105Z,8.90
2022-09-29T19:22:38.386Z,10.53
2022-09-29T19:25:10.659Z,8.93
2022-09-29T19:27:40.834Z,9.77
2022-09-29T19:30:10.145Z,8.70
2022-09-29T19:32:38.629Z,10.70
2022-09-29T19:35:07.907Z,12.63
2022-09-29T19:37:43.287Z,12.73
2022-09-29T19:40:13.052Z,12.80
2022-09-29T19:42:41.583Z,12.53
2022-09-29T19:45:10.907Z,9.93
2022-09-29T19:47:39.492Z,10.50
2022-09-29T19:50:25.636Z,8.83
2022-09-29T19:52:56.493Z,7.57
2022-09-29T19:55:25.809Z,7.40
2022-09-29T19:57:55.773Z,6.23
2022-09-29T20:00:25.069Z,6.97
2022-09-29T20:02:54.139Z,7.37
2022-09-29T20:05:24.185Z,6.17
2022-09-29T20:07:53.579Z,5.63
2022-09-29T20:10:27.732Z,6.07
2022-09-29T20:12:58.814Z,5.87
2022-09-29T20:15:28.568Z,6.67
2022-09-29T20:18:01.137Z,6.07
2022-09-29T20:20:30.040Z,5.50
2022-09-29T20:23:00.860Z,6.10
2022-09-29T20:25:33.191Z,5.83
2022-09-29T20:28:11.714Z,5.40
2022-09-29T20:30:43.600Z,5.50
2022-09-29T20:33:11.970Z,5.57
2022-09-29T20:35:40.931Z,5.87
2022-09-29T20:38:09.337Z,5.87
2022-09-29T20:40:39.298Z,6.03
2022-09-29T20:43:13.230Z,7.70
2022-09-29T20:45:41.741Z,7.90
2022-09-29T20:48:13.467Z,8.40
2022-09-29T20:50:42.747Z,8.93
2022-09-29T20:53:20.703Z,7.60
2022-09-29T20:55:51.292Z,7.90
2022-09-29T20:58:24.266Z,7.43
2022-09-29T21:00:53.185Z,6.77
2022-09-29T21:03:26.568Z,5.97
2022-09-29T21:05:55.232Z,6.30
2022-09-29T21:08:25.185Z,6.67
2022-09-29T21:11:02.018Z,6.87
2022-09-29T21:13:32.395Z,6.83
2022-09-29T21:16:01.628Z,6.80
2022-09-29T21:18:30.291Z,6.20
2022-09-29T21:21:01.461Z,5.87
2022-09-29T21:23:31.686Z,6.80
2022-09-29T21:26:02.951Z,6.73
2022-09-29T21:28:31.424Z,6.80
2022-09-29T21:31:11.022Z,6.10
2022-09-29T21:33:39.938Z,5.87
2022-09-29T21:36:11.021Z,5.40
2022-09-29T21:38:43.147Z,6.00
2022-09-29T21:41:16.309Z,5.67
2022-09-29T21:43:46.936Z,5.10
2022-09-29T21:46:16.583Z,5.60
2022-09-29T21:48:48.242Z,5.93
2022-09-29T21:51:31.377Z,6.17
2022-09-29T21:54:01.480Z,7.67
2022-09-29T21:56:32.644Z,7.57
2022-09-29T21:59:02.797Z,7.87
2022-09-29T22:01:31.838Z,5.60
2022-09-29T22:04:00.930Z,4.23
2022-09-29T22:06:32.966Z,4.27
2022-09-29T22:09:01.671Z,5.60
2022-09-29T22:11:36.114Z,5.07
2022-09-29T22:14:08.386Z,5.53
2022-09-29T22:16:40.359Z,4.10
2022-09-29T22:19:28.954Z,3.93
2022-09-29T22:21:57.307Z,4.33
2022-09-29T22:24:26.799Z,4.23
2022-09-29T22:26:58.122Z,4.00
2022-09-29T22:29:32.016Z,3.97
2022-09-29T22:32:00.235Z,3.60
2022-09-29T22:34:31.078Z,3.50
2022-09-29T22:36:59.455Z,4.70
2022-09-29T22:39:37.652Z,3.80
2022-09-29T22:42:07.319Z,4.43
2022-09-29T22:44:35.609Z,3.53
2022-09-29T22:47:05.618Z,3.50
2022-09-29T22:49:36.621Z,3.67
2022-09-29T22:52:05.173Z,3.90
2022-09-29T22:54:33.514Z,3.90
2022-09-29T22:57:02.184Z,3.73
2022-09-29T22:59:32.218Z,4.30
2022-09-29T23:02:01.660Z,3.40
2022-09-29T23:04:30.292Z,4.03
2022-09-29T23:06:58.841Z,3.77
2022-09-29T23:09:27.128Z,4.40
2022-09-29T23:11:56.301Z,4.23
2022-09-29T23:14:32.114Z,4.40
2022-09-29T23:17:02.646Z,4.17
2022-09-29T23:19:31.269Z,4.00
2022-09-29T23:21:59.622Z,5.07
2022-09-29T23:24:29.011Z,5.43
2022-09-29T23:26:59.884Z,5.47
2022-09-29T23:29:28.214Z,5.57
2022-09-29T23:31:59.114Z,6.30
2022-09-29T23:34:27.586Z,6.33
2022-09-29T23:36:56.119Z,5.03
2022-09-29T23:39:23.471Z,5.07
2022-09-29T23:41:52.809Z,5.33
2022-09-29T23:44:25.174Z,5.00
2022-09-29T23:46:54.514Z,4.50
2022-09-29T23:49:29.837Z,4.63
2022-09-29T23:51:59.111Z,4.90
2022-09-29T23:54:29.399Z,4.77
2022-09-29T23:56:58.093Z,5.90
2022-09-29T23:59:26.637Z,5.13
